createdAt,value
2022-08-03T00:00:21.131Z,100436.16
2022-08-03T00:02:48.989Z,100424.72
2022-08-03T00:05:15.522Z,100424.25
2022-08-03T00:07:42.076Z,100427.84
2022-08-03T00:10:09.104Z,100431.53
2022-08-03T00:12:36.483Z,100439.25
2022-08-03T00:15:03.916Z,100437.56
2022-08-03T00:17:52.518Z,100440.28
2022-08-03T00:20:21.562Z,100438.63
2022-08-03T00:22:48.633Z,100434.66
2022-08-03T00:25:15.464Z,100439.91
2022-08-03T00:27:42.000Z,100435.31
2022-08-03T00:30:08.858Z,100442.44
2022-08-03T00:32:35.433Z,100438.63
2022-08-03T00:35:05.694Z,100443.56
2022-08-03T00:37:41.039Z,100447.75
2022-08-03T00:40:12.781Z,100444.72
2022-08-03T00:42:50.611Z,100447.34
2022-08-03T00:45:18.426Z,100446.59
2022-08-03T00:47:45.485Z,100447.47
2022-08-03T00:50:12.859Z,100451.00
2022-08-03T00:52:39.935Z,100453.19
2022-08-03T00:55:06.696Z,100454.03
2022-08-03T00:57:33.807Z,100449.59
2022-08-03T01:00:00.901Z,100450.38
2022-08-03T01:02:28.754Z,100447.81
2022-08-03T01:04:56.163Z,100449.25
2022-08-03T01:07:42.640Z,100444.00
2022-08-03T01:10:50.717Z,100448.31
2022-08-03T01:14:18.537Z,100452.28
2022-08-03T01:17:08.263Z,100449.16
2022-08-03T01:20:10.286Z,100451.59
2022-08-03T01:22:58.139Z,100454.03
2022-08-03T01:25:54.506Z,100459.41
2022-08-03T01:28:58.782Z,100455.81
2022-08-03T01:32:59.513Z,100452.16
2022-08-03T01:34:50.667Z,100458.59
2022-08-03T01:37:24.814Z,100457.72
2022-08-03T01:39:53.823Z,100451.25
2022-08-03T01:42:25.353Z,100450.13
2022-08-03T01:44:53.143Z,100453.19
2022-08-03T01:47:22.458Z,100447.94
2022-08-03T01:49:51.186Z,100446.63
2022-08-03T01:52:20.208Z,100446.31
2022-08-03T01:54:51.099Z,100451.47
2022-08-03T01:57:19.968Z,100444.13
2022-08-03T01:59:49.183Z,100439.63
2022-08-03T02:02:34.163Z,100447.66
2022-08-03T02:05:03.271Z,100454.69
2022-08-03T02:07:31.562Z,100456.72
2022-08-03T02:10:00.231Z,100451.47
2022-08-03T02:12:28.836Z,100449.59
2022-08-03T02:14:57.871Z,100449.13
2022-08-03T02:17:39.112Z,100450.91
2022-08-03T02:20:09.830Z,100455.72
2022-08-03T02:22:40.505Z,100448.25
2022-08-03T02:25:12.113Z,100448.13
2022-08-03T02:27:44.115Z,100453.75
2022-08-03T02:30:13.646Z,100450.84
2022-08-03T02:32:42.610Z,100457.63
2022-08-03T02:35:15.351Z,100456.97
2022-08-03T02:37:49.870Z,100454.44
2022-08-03T02:40:19.795Z,100460.03
2022-08-03T02:42:49.542Z,100457.31
2022-08-03T02:45:18.247Z,100454.44
2022-08-03T02:47:53.447Z,100455.25
2022-08-03T02:50:24.514Z,100468.50
2022-08-03T02:52:53.211Z,100458.84
2022-08-03T02:55:21.364Z,100459.19
2022-08-03T02:57:48.698Z,100454.78
2022-08-03T03:00:27.204Z,100458.69
2022-08-03T03:02:57.638Z,100458.22
2022-08-03T03:05:54.318Z,100462.63
2022-08-03T03:08:17.705Z,100461.78
2022-08-03T03:10:46.593Z,100462.13
2022-08-03T03:13:15.302Z,100447.91
2022-08-03T03:15:43.517Z,100455.53
2022-08-03T03:18:10.773Z,100458.78
2022-08-03T03:20:40.903Z,100457.44
2022-08-03T03:23:09.066Z,100452.00
2022-08-03T03:25:36.347Z,100459.16
2022-08-03T03:28:04.112Z,100460.69
2022-08-03T03:30:33.616Z,100456.25
2022-08-03T03:33:00.671Z,100470.22
2022-08-03T03:35:27.964Z,100460.69
2022-08-03T03:37:55.210Z,100466.50
2022-08-03T03:40:22.624Z,100462.28
2022-08-03T03:42:50.238Z,100465.00
2022-08-03T03:45:17.878Z,100459.22
2022-08-03T03:47:44.478Z,100463.69
2022-08-03T03:50:11.638Z,100466.78
2022-08-03T03:52:38.429Z,100464.88
2022-08-03T03:55:05.420Z,100467.44
2022-08-03T03:57:31.953Z,100465.22
2022-08-03T03:59:58.475Z,100470.66
2022-08-03T04:02:25.158Z,100470.66
2022-08-03T04:05:10.401Z,100459.59
2022-08-03T04:08:08.677Z,100468.09
2022-08-03T04:10:55.523Z,100467.75
2022-08-03T04:13:22.940Z,100470.63
2022-08-03T04:15:50.795Z,100474.50
2022-08-03T04:18:19.107Z,100482.50
2022-08-03T04:20:48.843Z,100484.03
2022-08-03T04:23:19.504Z,100482.63
2022-08-03T04:25:48.788Z,100491.78
2022-08-03T04:28:30.502Z,100489.19
2022-08-03T04:30:59.721Z,100487.47
2022-08-03T04:33:29.546Z,100490.03
2022-08-03T04:36:02.873Z,100480.28
2022-08-03T04:38:32.935Z,100488.41
2022-08-03T04:41:01.072Z,100493.31
2022-08-03T04:43:27.969Z,100499.06
2022-08-03T04:45:55.797Z,100497.66
2022-08-03T04:48:22.683Z,100506.13
2022-08-03T04:50:49.338Z,100496.25
2022-08-03T04:53:16.566Z,100503.31
2022-08-03T04:55:43.206Z,100506.47
2022-08-03T04:58:09.891Z,100512.50
2022-08-03T05:00:36.509Z,100520.06
2022-08-03T05:03:03.107Z,100515.72
2022-08-03T05:05:40.665Z,100515.66
2022-08-03T05:08:16.363Z,100522.53
2022-08-03T05:10:47.564Z,100523.09
2022-08-03T05:13:14.575Z,100519.66
2022-08-03T05:15:43.160Z,100521.44
2022-08-03T05:18:13.945Z,100524.75
2022-08-03T05:20:41.132Z,100536.88
2022-08-03T05:23:07.763Z,100528.63
2022-08-03T05:25:34.387Z,100528.31
2022-08-03T05:28:01.380Z,100529.75
2022-08-03T05:30:34.028Z,100532.00
2022-08-03T05:33:02.591Z,100531.31
2022-08-03T05:35:55.908Z,100528.91
2022-08-03T05:38:20.869Z,100532.00
2022-08-03T05:40:56.812Z,100537.78
2022-08-03T05:43:24.840Z,100532.50
2022-08-03T05:46:12.389Z,100532.16
2022-08-03T05:48:38.031Z,100536.72
2022-08-03T05:51:06.668Z,100531.41
2022-08-03T05:53:34.096Z,100530.63
2022-08-03T05:56:02.679Z,100533.47
2022-08-03T05:58:42.008Z,100539.88
2022-08-03T06:01:08.683Z,100538.50
2022-08-03T06:03:35.232Z,100541.63
2022-08-03T06:06:01.839Z,100535.19
2022-08-03T06:08:28.438Z,100548.31
2022-08-03T06:10:55.017Z,100549.22
2022-08-03T06:13:22.062Z,100547.56
2022-08-03T06:15:48.600Z,100549.69
2022-08-03T06:18:15.332Z,100551.44
2022-08-03T06:20:41.864Z,100552.72
2022-08-03T06:23:15.934Z,100550.41
2022-08-03T06:25:44.498Z,100548.09
2022-08-03T06:28:35.417Z,100547.91
2022-08-03T06:30:59.042Z,100556.53
2022-08-03T06:33:26.538Z,100559.06
2022-08-03T06:36:13.168Z,100549.59
2022-08-03T06:38:39.736Z,100553.19
2022-08-03T06:41:06.237Z,100557.59
2022-08-03T06:43:35.982Z,100562.44
2022-08-03T06:46:02.577Z,100552.28
2022-08-03T06:48:29.911Z,100555.63
2022-08-03T06:50:56.513Z,100552.69
2022-08-03T06:53:23.146Z,100557.31
2022-08-03T06:55:54.262Z,100565.09
2022-08-03T06:58:21.373Z,100568.44
2022-08-03T07:00:48.040Z,100565.25
2022-08-03T07:03:15.172Z,100564.97
2022-08-03T07:05:43.005Z,100566.03
2022-08-03T07:08:10.171Z,100565.16
2022-08-03T07:10:37.141Z,100564.28
2022-08-03T07:13:04.325Z,100566.13
2022-08-03T07:15:55.374Z,100560.63
2022-08-03T07:18:17.658Z,100564.56
2022-08-03T07:20:54.854Z,100565.13
2022-08-03T07:23:21.386Z,100563.56
2022-08-03T07:25:47.953Z,100566.91
2022-08-03T07:28:15.372Z,100563.66
2022-08-03T07:30:42.029Z,100563.41
2022-08-03T07:33:08.617Z,100562.50
2022-08-03T07:35:35.141Z,100561.59
2022-08-03T07:38:01.698Z,100560.69
2022-08-03T07:40:31.698Z,100564.47
2022-08-03T07:42:58.973Z,100557.81
2022-08-03T07:45:26.643Z,100557.06
2022-08-03T07:47:54.107Z,100554.84
2022-08-03T07:50:21.906Z,100559.03
2022-08-03T07:52:49.757Z,100556.81
2022-08-03T07:55:18.489Z,100557.34
2022-08-03T07:57:45.075Z,100558.69
2022-08-03T08:00:19.236Z,100551.59
2022-08-03T08:02:46.127Z,100547.19
2022-08-03T08:05:13.009Z,100555.75
2022-08-03T08:07:39.783Z,100550.78
2022-08-03T08:10:08.371Z,100550.00
2022-08-03T08:12:35.042Z,100555.53
2022-08-03T08:15:02.338Z,100550.78
2022-08-03T08:17:28.909Z,100551.28
2022-08-03T08:19:55.470Z,100550.06
2022-08-03T08:22:29.699Z,100556.34
2022-08-03T08:24:57.933Z,100546.63
2022-08-03T08:27:24.433Z,100553.53
2022-08-03T08:29:54.174Z,100550.16
2022-08-03T08:32:23.388Z,100552.09
2022-08-03T08:34:50.122Z,100555.91
2022-08-03T08:37:16.773Z,100550.41
2022-08-03T08:39:43.302Z,100545.34
2022-08-03T08:42:10.287Z,100542.94
2022-08-03T08:44:36.959Z,100545.34
2022-08-03T08:47:04.606Z,100547.50
2022-08-03T08:49:35.841Z,100546.88
2022-08-03T08:52:05.130Z,100544.81
2022-08-03T08:54:56.317Z,100542.84
2022-08-03T08:57:42.323Z,100545.34
2022-08-03T09:00:14.042Z,100534.47
2022-08-03T09:02:44.408Z,100534.97
2022-08-03T09:05:16.157Z,100528.47
2022-08-03T09:07:43.715Z,100532.13
2022-08-03T09:10:13.490Z,100524.38
2022-08-03T09:12:53.514Z,100533.75
2022-08-03T09:15:22.076Z,100528.50
2022-08-03T09:17:51.235Z,100528.50
2022-08-03T09:20:20.020Z,100530.34
2022-08-03T09:23:43.012Z,100532.50
2022-08-03T09:25:59.870Z,100529.63
2022-08-03T09:29:01.275Z,100524.09
2022-08-03T09:31:30.136Z,100529.16
2022-08-03T09:34:01.018Z,100520.19
2022-08-03T09:36:46.321Z,100519.53
2022-08-03T09:39:16.451Z,100517.16
2022-08-03T09:41:45.749Z,100515.59
2022-08-03T09:44:24.596Z,100519.38
2022-08-03T09:46:56.186Z,100512.22
2022-08-03T09:49:23.906Z,100508.81
2022-08-03T09:52:30.310Z,100509.16
2022-08-03T09:54:37.492Z,100511.75
2022-08-03T09:57:04.608Z,100507.47
2022-08-03T09:59:33.334Z,100507.53
2022-08-03T10:02:00.639Z,100502.97
2022-08-03T10:04:27.466Z,100494.16
2022-08-03T10:07:06.147Z,100502.88
2022-08-03T10:09:33.233Z,100496.81
2022-08-03T10:12:10.887Z,100494.47
2022-08-03T10:14:39.518Z,100492.56
2022-08-03T10:17:06.369Z,100487.06
2022-08-03T10:19:33.805Z,100483.19
2022-08-03T10:22:10.475Z,100489.88
2022-08-03T10:24:39.333Z,100489.09
2022-08-03T10:27:07.970Z,100479.38
2022-08-03T10:29:39.747Z,100477.69
2022-08-03T10:32:22.183Z,100483.25
2022-08-03T10:34:51.327Z,100483.84
2022-08-03T10:37:30.471Z,100475.22
2022-08-03T10:39:59.631Z,100478.56
2022-08-03T10:42:28.284Z,100471.06
2022-08-03T10:45:18.545Z,100467.72
2022-08-03T10:47:47.525Z,100468.28
2022-08-03T10:50:14.272Z,100457.16
2022-08-03T10:53:08.667Z,100463.25
2022-08-03T10:55:56.705Z,100450.44
2022-08-03T10:58:37.185Z,100453.22
2022-08-03T11:01:06.083Z,100454.84
2022-08-03T11:03:33.503Z,100446.44
2022-08-03T11:06:19.121Z,100443.88
2022-08-03T11:08:50.243Z,100434.31
2022-08-03T11:11:19.803Z,100428.38
2022-08-03T11:13:59.367Z,100435.06
2022-08-03T11:16:27.667Z,100425.66
2022-08-03T11:19:03.892Z,100422.31
2022-08-03T11:21:48.951Z,100422.81
2022-08-03T11:24:37.422Z,100418.81
2022-08-03T11:27:19.242Z,100412.22
2022-08-03T11:30:07.426Z,100417.94
2022-08-03T11:32:40.222Z,100416.63
2022-08-03T11:35:26.257Z,100418.56
2022-08-03T11:38:03.251Z,100413.22
2022-08-03T11:40:44.284Z,100416.09
2022-08-03T11:43:31.601Z,100409.38
2022-08-03T11:46:06.954Z,100405.28
2022-08-03T11:48:50.856Z,100414.34
2022-08-03T11:51:25.610Z,100403.00
2022-08-03T11:53:54.183Z,100404.31
2022-08-03T11:56:20.897Z,100408.22
2022-08-03T11:58:58.211Z,100403.13
2022-08-03T12:01:35.633Z,100404.16
2022-08-03T12:04:06.171Z,100396.03
2022-08-03T12:06:56.536Z,100405.81
2022-08-03T12:09:23.138Z,100394.84
2022-08-03T12:11:59.644Z,100397.69
2022-08-03T12:14:48.861Z,100386.75
2022-08-03T12:17:16.574Z,100392.94
2022-08-03T12:19:44.088Z,100389.31
2022-08-03T12:22:10.694Z,100381.25
2022-08-03T12:24:46.909Z,100379.25
2022-08-03T12:27:24.071Z,100380.56
2022-08-03T12:29:59.271Z,100375.66
2022-08-03T12:32:27.275Z,100386.72
2022-08-03T12:34:55.454Z,100381.28
2022-08-03T12:37:23.569Z,100371.03
2022-08-03T12:40:02.743Z,100368.50
2022-08-03T12:42:36.807Z,100369.81
2022-08-03T12:45:20.378Z,100370.78
2022-08-03T12:47:56.829Z,100363.25
2022-08-03T12:50:34.000Z,100364.75
2022-08-03T12:53:02.886Z,100358.31
2022-08-03T12:55:57.004Z,100357.88
2022-08-03T12:58:34.124Z,100359.69
2022-08-03T13:01:05.072Z,100356.31
2022-08-03T13:03:45.900Z,100355.69
2022-08-03T13:06:19.278Z,100353.63
2022-08-03T13:08:47.952Z,100360.50
2022-08-03T13:11:55.611Z,100351.91
2022-08-03T13:14:20.575Z,100340.69
2022-08-03T13:16:50.945Z,100352.44
2022-08-03T13:19:17.620Z,100347.09
2022-08-03T13:22:03.505Z,100344.00
2022-08-03T13:24:32.840Z,100341.41
2022-08-03T13:27:00.765Z,100338.59
2022-08-03T13:29:47.434Z,100342.94
2022-08-03T13:32:13.947Z,100337.00
2022-08-03T13:34:40.537Z,100326.41
2022-08-03T13:37:09.351Z,100330.78
2022-08-03T13:39:57.914Z,100327.88
2022-08-03T13:42:25.144Z,100327.88
2022-08-03T13:44:51.831Z,100332.53
2022-08-03T13:47:19.466Z,100327.22
2022-08-03T13:49:56.958Z,100322.91
2022-08-03T13:52:35.827Z,100315.06
2022-08-03T13:55:04.871Z,100318.38
2022-08-03T13:58:19.020Z,100316.28
2022-08-03T14:00:28.071Z,100304.09
2022-08-03T14:03:16.595Z,100303.16
2022-08-03T14:05:44.103Z,100296.47
2022-08-03T14:08:11.570Z,100299.94
2022-08-03T14:10:43.238Z,100294.03
2022-08-03T14:13:12.044Z,100294.28
2022-08-03T14:15:38.942Z,100291.66
2022-08-03T14:18:15.424Z,100288.44
2022-08-03T14:20:48.951Z,100288.81
2022-08-03T14:23:17.596Z,100283.69
2022-08-03T14:25:52.425Z,100279.03
2022-08-03T14:28:23.028Z,100284.81
2022-08-03T14:30:51.853Z,100277.75
2022-08-03T14:33:18.541Z,100278.31
2022-08-03T14:35:45.098Z,100275.09
2022-08-03T14:38:11.598Z,100270.81
2022-08-03T14:40:38.211Z,100272.66
2022-08-03T14:43:04.757Z,100270.28
2022-08-03T14:45:31.312Z,100273.53
2022-08-03T14:50:26.579Z,100274.53
2022-08-03T14:50:51.098Z,100271.22
2022-08-03T14:53:19.234Z,100259.09
2022-08-03T14:55:50.774Z,100254.09
2022-08-03T14:58:22.760Z,100260.22
2022-08-03T15:00:51.836Z,100263.50
2022-08-03T15:03:23.049Z,100254.31
2022-08-03T15:05:51.431Z,100260.34
2022-08-03T15:08:17.977Z,100263.19
2022-08-03T15:10:45.564Z,100266.44
2022-08-03T15:13:13.268Z,100262.31
2022-08-03T15:15:40.690Z,100277.06
2022-08-03T15:18:07.795Z,100262.88
2022-08-03T15:20:50.165Z,100261.47
2022-08-03T15:23:18.275Z,100258.31
2022-08-03T15:26:31.704Z,100260.28
2022-08-03T15:28:33.204Z,100259.88
2022-08-03T15:31:00.945Z,100246.78
2022-08-03T15:33:27.987Z,100248.72
2022-08-03T15:35:54.551Z,100249.00
2022-08-03T15:38:25.750Z,100256.94
2022-08-03T15:40:58.938Z,100248.31
2022-08-03T15:43:25.512Z,100248.84
2022-08-03T15:46:19.181Z,100242.88
2022-08-03T15:48:39.199Z,100246.72
2022-08-03T15:51:06.217Z,100248.91
2022-08-03T15:53:33.649Z,100251.16
2022-08-03T15:56:00.894Z,100243.97
2022-08-03T15:59:04.203Z,100252.44
2022-08-03T16:01:19.869Z,100247.16
2022-08-03T16:03:46.891Z,100242.41
2022-08-03T16:06:13.908Z,100247.34
2022-08-03T16:08:40.470Z,100235.97
2022-08-03T16:11:07.075Z,100239.47
2022-08-03T16:14:13.691Z,100236.06
2022-08-03T16:16:20.078Z,100233.34
2022-08-03T16:18:46.671Z,100234.66
2022-08-03T16:21:17.787Z,100239.63
2022-08-03T16:23:47.347Z,100236.31
2022-08-03T16:26:14.348Z,100233.72
2022-08-03T16:28:41.428Z,100244.63
2022-08-03T16:31:09.170Z,100234.22
2022-08-03T16:33:36.077Z,100243.84
2022-08-03T16:36:03.240Z,100241.38
2022-08-03T16:38:30.537Z,100241.44
2022-08-03T16:40:57.130Z,100234.47
2022-08-03T16:43:24.680Z,100230.38
2022-08-03T16:45:51.416Z,100231.88
2022-08-03T16:48:18.997Z,100228.09
2022-08-03T16:50:46.193Z,100238.97
2022-08-03T16:53:16.353Z,100234.69
2022-08-03T16:55:51.846Z,100241.06
2022-08-03T16:58:34.470Z,100238.81
2022-08-03T17:01:21.041Z,100235.66
2022-08-03T17:04:01.165Z,100240.34
2022-08-03T17:06:34.151Z,100241.63
2022-08-03T17:09:03.243Z,100248.84
2022-08-03T17:11:32.125Z,100254.84
2022-08-03T17:14:00.114Z,100246.38
2022-08-03T17:16:27.055Z,100260.22
2022-08-03T17:19:01.961Z,100257.00
2022-08-03T17:21:32.425Z,100257.72
2022-08-03T17:24:12.154Z,100259.03
2022-08-03T17:26:45.770Z,100262.72
2022-08-03T17:29:23.108Z,100267.31
2022-08-03T17:31:53.035Z,100267.34
2022-08-03T17:34:20.321Z,100263.94
2022-08-03T17:37:03.796Z,100262.66
2022-08-03T17:39:57.021Z,100274.56
2022-08-03T17:42:29.401Z,100276.59
2022-08-03T17:45:02.458Z,100273.38
2022-08-03T17:47:42.799Z,100272.91
2022-08-03T17:50:24.127Z,100270.06
2022-08-03T17:52:57.777Z,100271.91
2022-08-03T17:55:56.043Z,100275.44
2022-08-03T17:58:30.748Z,100272.53
2022-08-03T18:02:00.825Z,100277.66
2022-08-03T18:04:10.904Z,100281.28
2022-08-03T18:06:56.458Z,100282.69
2022-08-03T18:10:03.806Z,100278.56
2022-08-03T18:12:23.762Z,100278.81
2022-08-03T18:15:01.090Z,100282.16
2022-08-03T18:17:55.568Z,100284.88
2022-08-03T18:20:34.731Z,100280.13
2022-08-03T18:23:05.898Z,100286.44
2022-08-03T18:25:45.479Z,100292.66
2022-08-03T18:28:16.442Z,100295.63
2022-08-03T18:30:53.551Z,100308.03
2022-08-03T18:34:16.802Z,100301.75
2022-08-03T18:36:09.750Z,100305.03
2022-08-03T18:38:42.200Z,100311.34
2022-08-03T18:41:19.643Z,100311.50
2022-08-03T18:44:06.760Z,100310.53
2022-08-03T18:46:41.685Z,100310.59
2022-08-03T18:49:15.207Z,100311.84
2022-08-03T18:51:47.058Z,100318.25
2022-08-03T18:54:57.256Z,100331.16
2022-08-03T18:57:02.004Z,100327.97
2022-08-03T18:59:58.807Z,100316.94
2022-08-03T19:02:26.542Z,100326.00
2022-08-03T19:04:54.650Z,100322.84
2022-08-03T19:07:27.317Z,100332.41
2022-08-03T19:09:59.759Z,100342.91
2022-08-03T19:12:31.144Z,100336.13
2022-08-03T19:15:13.533Z,100338.47
2022-08-03T19:17:42.626Z,100342.97
2022-08-03T19:20:22.437Z,100342.03
2022-08-03T19:22:53.067Z,100351.59
2022-08-03T19:25:19.735Z,100346.50
2022-08-03T19:28:04.291Z,100351.41
2022-08-03T19:30:39.962Z,100350.25
2022-08-03T19:33:13.119Z,100347.47
2022-08-03T19:35:46.667Z,100350.72
2022-08-03T19:38:28.311Z,100358.44
2022-08-03T19:40:58.258Z,100358.00
2022-08-03T19:43:33.126Z,100348.56
2022-08-03T19:46:15.560Z,100361.69
2022-08-03T19:48:54.774Z,100364.22
2022-08-03T19:51:24.540Z,100361.19
2022-08-03T19:54:14.640Z,100361.56
2022-08-03T19:56:46.307Z,100368.41
2022-08-03T19:59:15.851Z,100369.38
2022-08-03T20:01:50.277Z,100375.34
2022-08-03T20:04:17.224Z,100376.06
2022-08-03T20:06:45.178Z,100376.13
2022-08-03T20:09:12.734Z,100370.53
2022-08-03T20:11:43.777Z,100378.75
2022-08-03T20:14:12.088Z,100364.94
2022-08-03T20:16:51.718Z,100376.78
2022-08-03T20:19:18.474Z,100375.44
2022-08-03T20:21:48.703Z,100363.31
2022-08-03T20:24:36.736Z,100359.19
2022-08-03T20:27:08.630Z,100370.25
2022-08-03T20:30:05.199Z,100364.63
2022-08-03T20:32:27.993Z,100365.84
2022-08-03T20:34:54.523Z,100368.47
2022-08-03T20:37:22.175Z,100374.28
2022-08-03T20:39:49.781Z,100366.25
2022-08-03T20:42:21.547Z,100372.19
2022-08-03T20:45:04.670Z,100367.41
2022-08-03T20:47:35.583Z,100363.72
2022-08-03T20:50:04.176Z,100363.78
2022-08-03T20:52:34.400Z,100367.69
2022-08-03T20:55:13.022Z,100365.84
2022-08-03T20:57:43.226Z,100368.44
2022-08-03T21:00:17.789Z,100368.09
2022-08-03T21:02:44.427Z,100366.41
2022-08-03T21:05:11.401Z,100359.47
2022-08-03T21:07:45.991Z,100362.28
2022-08-03T21:10:30.202Z,100368.22
2022-08-03T21:13:16.256Z,100377.47
2022-08-03T21:16:12.959Z,100371.59
2022-08-03T21:18:58.654Z,100376.69
2022-08-03T21:21:28.329Z,100384.16
2022-08-03T21:23:55.500Z,100378.25
2022-08-03T21:26:24.635Z,100385.25
2022-08-03T21:28:54.199Z,100382.75
2022-08-03T21:31:25.080Z,100390.13
2022-08-03T21:34:03.386Z,100395.47
2022-08-03T21:36:33.711Z,100392.34
2022-08-03T21:39:03.011Z,100389.66
2022-08-03T21:41:31.829Z,100392.03
2022-08-03T21:43:59.646Z,100400.25
2022-08-03T21:46:29.359Z,100403.69
2022-08-03T21:50:04.478Z,100403.69
2022-08-03T21:51:50.490Z,100407.34
2022-08-03T21:54:20.057Z,100406.72
2022-08-03T21:56:50.983Z,100407.13
2022-08-03T21:59:20.357Z,100406.13
2022-08-03T22:01:51.529Z,100405.50
2022-08-03T22:04:50.801Z,100411.19
2022-08-03T22:07:09.240Z,100413.13
2022-08-03T22:09:36.776Z,100408.25
2022-08-03T22:12:04.297Z,100410.81
2022-08-03T22:14:33.154Z,100414.41
2022-08-03T22:17:06.466Z,100410.22
2022-08-03T22:19:33.818Z,100415.69
2022-08-03T22:22:04.595Z,100408.97
2022-08-03T22:24:32.684Z,100413.38
2022-08-03T22:27:19.386Z,100414.84
2022-08-03T22:29:46.236Z,100417.81
2022-08-03T22:32:13.879Z,100414.63
2022-08-03T22:34:42.810Z,100420.28
2022-08-03T22:37:10.528Z,100423.88
2022-08-03T22:39:39.427Z,100431.03
2022-08-03T22:42:06.348Z,100424.06
2022-08-03T22:44:35.115Z,100425.13
2022-08-03T22:47:03.622Z,100432.06
2022-08-03T22:49:31.815Z,100424.09
2022-08-03T22:51:59.232Z,100426.81
2022-08-03T22:54:25.743Z,100436.28
2022-08-03T22:56:52.346Z,100435.22
2022-08-03T22:59:39.968Z,100427.22
2022-08-03T23:02:20.073Z,100433.50
2022-08-03T23:05:02.858Z,100432.84
2022-08-03T23:07:35.043Z,100432.59
2022-08-03T23:10:06.371Z,100436.09
2022-08-03T23:12:36.641Z,100440.28
2022-08-03T23:15:08.293Z,100435.00
2022-08-03T23:17:57.337Z,100433.50
2022-08-03T23:20:26.998Z,100435.59
2022-08-03T23:22:57.587Z,100439.38
2022-08-03T23:25:25.256Z,100443.13
2022-08-03T23:28:05.593Z,100450.06
2022-08-03T23:30:36.216Z,100438.06
2022-08-03T23:33:04.061Z,100439.72
2022-08-03T23:36:17.238Z,100444.94
2022-08-03T23:38:36.691Z,100441.13
2022-08-03T23:41:04.895Z,100442.09
2022-08-03T23:43:51.420Z,100444.22
2022-08-03T23:46:23.990Z,100448.28
2022-08-03T23:48:51.115Z,100453.31
2022-08-03T23:51:40.699Z,100456.91
2022-08-03T23:54:18.835Z,100444.88
2022-08-03T23:56:59.137Z,100445.28
2022-08-03T23:59:55.649Z,100445.38
